sensor_id;sensor_type;location;lat;lon;timestamp;P1;durP1;ratioP1;P2;durP2;ratioP2
31114;SDS011;17764;47.152;9.828;2023-03-05T00:00:01;37.73;;;27.53;;
31114;SDS011;17764;47.152;9.828;2023-03-05T00:02:29;38.50;;;28.17;;
31114;SDS011;17764;47.152;9.828;2023-03-05T00:04:55;41.33;;;28.23;;
31114;SDS011;17764;47.152;9.828;2023-03-05T00:07:21;42.83;;;28.50;;
31114;SDS011;17764;47.152;9.828;2023-03-05T00:09:47;40.50;;;28.60;;
31114;SDS011;17764;47.152;9.828;2023-03-05T00:12:13;42.20;;;28.57;;
31114;SDS011;17764;47.152;9.828;2023-03-05T00:14:39;39.93;;;28.70;;
31114;SDS011;17764;47.152;9.828;2023-03-05T00:17:05;41.37;;;29.23;;
31114;SDS011;17764;47.152;9.828;2023-03-05T00:19:31;43.40;;;30.33;;
31114;SDS011;17764;47.152;9.828;2023-03-05T00:21:57;39.23;;;28.80;;
31114;SDS011;17764;47.152;9.828;2023-03-05T00:24:24;40.30;;;28.20;;
31114;SDS011;17764;47.152;9.828;2023-03-05T00:26:50;40.03;;;28.67;;
31114;SDS011;17764;47.152;9.828;2023-03-05T00:29:17;42.53;;;28.93;;
31114;SDS011;17764;47.152;9.828;2023-03-05T00:31:45;42.10;;;29.00;;
31114;SDS011;17764;47.152;9.828;2023-03-05T00:34:13;43.00;;;29.03;;
31114;SDS011;17764;47.152;9.828;2023-03-05T00:36:41;41.77;;;29.50;;
31114;SDS011;17764;47.152;9.828;2023-03-05T00:39:07;42.90;;;28.83;;
31114;SDS011;17764;47.152;9.828;2023-03-05T00:41:33;44.43;;;30.27;;
31114;SDS011;17764;47.152;9.828;2023-03-05T00:43:59;43.07;;;28.37;;
31114;SDS011;17764;47.152;9.828;2023-03-05T00:46:25;40.80;;;29.00;;
31114;SDS011;17764;47.152;9.828;2023-03-05T00:48:51;42.57;;;28.80;;
31114;SDS011;17764;47.152;9.828;2023-03-05T00:51:18;43.30;;;30.17;;
31114;SDS011;17764;47.152;9.828;2023-03-05T00:53:44;46.87;;;29.90;;
31114;SDS011;17764;47.152;9.828;2023-03-05T00:56:10;42.33;;;29.13;;
31114;SDS011;17764;47.152;9.828;2023-03-05T00:58:36;42.17;;;28.93;;
31114;SDS011;17764;47.152;9.828;2023-03-05T01:01:02;40.67;;;29.37;;
31114;SDS011;17764;47.152;9.828;2023-03-05T01:03:32;42.07;;;29.63;;
31114;SDS011;17764;47.152;9.828;2023-03-05T01:05:59;41.40;;;29.13;;
31114;SDS011;17764;47.152;9.828;2023-03-05T01:08:26;41.53;;;28.10;;
31114;SDS011;17764;47.152;9.828;2023-03-05T01:10:52;44.37;;;29.47;;
31114;SDS011;17764;47.152;9.828;2023-03-05T01:13:17;39.33;;;27.90;;
31114;SDS011;17764;47.152;9.828;2023-03-05T01:15:44;39.93;;;27.83;;
31114;SDS011;17764;47.152;9.828;2023-03-05T01:18:12;39.73;;;27.83;;
31114;SDS011;17764;47.152;9.828;2023-03-05T01:20:39;38.47;;;27.03;;
31114;SDS011;17764;47.152;9.828;2023-03-05T01:23:04;43.23;;;29.23;;
31114;SDS011;17764;47.152;9.828;2023-03-05T01:25:30;45.93;;;30.30;;
31114;SDS011;17764;47.152;9.828;2023-03-05T01:27:56;43.43;;;29.37;;
31114;SDS011;17764;47.152;9.828;2023-03-05T01:30:23;39.73;;;28.70;;
31114;SDS011;17764;47.152;9.828;2023-03-05T01:32:51;43.30;;;29.87;;
31114;SDS011;17764;47.152;9.828;2023-03-05T01:35:18;45.40;;;31.00;;
31114;SDS011;17764;47.152;9.828;2023-03-05T01:37:46;45.73;;;30.60;;
31114;SDS011;17764;47.152;9.828;2023-03-05T01:40:16;43.77;;;30.77;;
31114;SDS011;17764;47.152;9.828;2023-03-05T01:42:46;44.07;;;30.70;;
31114;SDS011;17764;47.152;9.828;2023-03-05T01:45:15;44.27;;;30.47;;
31114;SDS011;17764;47.152;9.828;2023-03-05T01:47:41;42.17;;;29.80;;
31114;SDS011;17764;47.152;9.828;2023-03-05T01:50:08;43.37;;;30.17;;
31114;SDS011;17764;47.152;9.828;2023-03-05T01:52:36;43.13;;;29.43;;
31114;SDS011;17764;47.152;9.828;2023-03-05T01:55:11;42.10;;;29.97;;
31114;SDS011;17764;47.152;9.828;2023-03-05T01:58:20;45.93;;;30.03;;
31114;SDS011;17764;47.152;9.828;2023-03-05T02:00:28;47.43;;;30.10;;
31114;SDS011;17764;47.152;9.828;2023-03-05T02:02:56;44.50;;;30.43;;
31114;SDS011;17764;47.152;9.828;2023-03-05T02:05:24;43.70;;;29.87;;
31114;SDS011;17764;47.152;9.828;2023-03-05T02:07:53;45.97;;;29.43;;
31114;SDS011;17764;47.152;9.828;2023-03-05T02:10:23;43.07;;;30.10;;
31114;SDS011;17764;47.152;9.828;2023-03-05T02:12:52;43.63;;;30.80;;
31114;SDS011;17764;47.152;9.828;2023-03-05T02:15:20;44.33;;;30.83;;
31114;SDS011;17764;47.152;9.828;2023-03-05T02:17:46;41.83;;;28.63;;
31114;SDS011;17764;47.152;9.828;2023-03-05T02:20:14;43.73;;;29.20;;
31114;SDS011;17764;47.152;9.828;2023-03-05T02:22:40;43.00;;;29.77;;
31114;SDS011;17764;47.152;9.828;2023-03-05T02:27:43;44.50;;;30.17;;
31114;SDS011;17764;47.152;9.828;2023-03-05T02:30:11;42.30;;;29.83;;
31114;SDS011;17764;47.152;9.828;2023-03-05T02:32:37;44.07;;;30.03;;
31114;SDS011;17764;47.152;9.828;2023-03-05T02:35:04;43.40;;;30.30;;
31114;SDS011;17764;47.152;9.828;2023-03-05T02:37:30;44.40;;;30.23;;
31114;SDS011;17764;47.152;9.828;2023-03-05T02:39:56;44.30;;;30.43;;
31114;SDS011;17764;47.152;9.828;2023-03-05T02:42:22;46.93;;;30.63;;
31114;SDS011;17764;47.152;9.828;2023-03-05T02:44:48;46.03;;;31.03;;
31114;SDS011;17764;47.152;9.828;2023-03-05T02:47:14;44.90;;;30.27;;
31114;SDS011;17764;47.152;9.828;2023-03-05T02:49:40;47.60;;;31.40;;
31114;SDS011;17764;47.152;9.828;2023-03-05T02:52:06;44.00;;;30.70;;
31114;SDS011;17764;47.152;9.828;2023-03-05T02:54:32;45.27;;;30.57;;
31114;SDS011;17764;47.152;9.828;2023-03-05T02:56:58;47.40;;;30.37;;
31114;SDS011;17764;47.152;9.828;2023-03-05T02:59:23;45.40;;;32.43;;
31114;SDS011;17764;47.152;9.828;2023-03-05T03:01:49;46.53;;;30.83;;
31114;SDS011;17764;47.152;9.828;2023-03-05T03:04:15;46.50;;;31.27;;
31114;SDS011;17764;47.152;9.828;2023-03-05T03:06:41;43.87;;;30.47;;
31114;SDS011;17764;47.152;9.828;2023-03-05T03:09:07;46.93;;;31.80;;
31114;SDS011;17764;47.152;9.828;2023-03-05T03:11:33;46.53;;;30.97;;
31114;SDS011;17764;47.152;9.828;2023-03-05T03:13:59;47.80;;;31.70;;
31114;SDS011;17764;47.152;9.828;2023-03-05T03:16:25;43.53;;;30.43;;
31114;SDS011;17764;47.152;9.828;2023-03-05T03:18:51;49.17;;;32.43;;
31114;SDS011;17764;47.152;9.828;2023-03-05T03:21:21;44.70;;;30.80;;
31114;SDS011;17764;47.152;9.828;2023-03-05T03:23:50;50.67;;;32.67;;
31114;SDS011;17764;47.152;9.828;2023-03-05T03:26:16;47.33;;;31.10;;
31114;SDS011;17764;47.152;9.828;2023-03-05T03:28:42;48.07;;;31.43;;
31114;SDS011;17764;47.152;9.828;2023-03-05T03:31:08;43.40;;;30.40;;
31114;SDS011;17764;47.152;9.828;2023-03-05T03:33:35;46.47;;;31.27;;
31114;SDS011;17764;47.152;9.828;2023-03-05T03:36:02;46.67;;;31.07;;
31114;SDS011;17764;47.152;9.828;2023-03-05T03:38:28;45.60;;;32.43;;
31114;SDS011;17764;47.152;9.828;2023-03-05T03:40:54;46.23;;;30.97;;
31114;SDS011;17764;47.152;9.828;2023-03-05T03:43:20;45.30;;;31.03;;
31114;SDS011;17764;47.152;9.828;2023-03-05T03:45:46;47.10;;;31.23;;
31114;SDS011;17764;47.152;9.828;2023-03-05T03:48:12;48.27;;;30.90;;
31114;SDS011;17764;47.152;9.828;2023-03-05T03:50:38;49.70;;;32.33;;
31114;SDS011;17764;47.152;9.828;2023-03-05T03:53:04;46.97;;;31.57;;
31114;SDS011;17764;47.152;9.828;2023-03-05T03:55:30;46.43;;;31.23;;
31114;SDS011;17764;47.152;9.828;2023-03-05T03:57:56;48.53;;;32.23;;
31114;SDS011;17764;47.152;9.828;2023-03-05T04:00:22;46.10;;;31.70;;
31114;SDS011;17764;47.152;9.828;2023-03-05T04:02:48;45.50;;;30.63;;
31114;SDS011;17764;47.152;9.828;2023-03-05T04:05:15;45.67;;;30.73;;
31114;SDS011;17764;47.152;9.828;2023-03-05T04:07:41;47.57;;;30.83;;
31114;SDS011;17764;47.152;9.828;2023-03-05T04:10:09;43.60;;;30.23;;
31114;SDS011;17764;47.152;9.828;2023-03-05T04:12:35;49.47;;;31.87;;
31114;SDS011;17764;47.152;9.828;2023-03-05T04:15:01;51.53;;;32.20;;
31114;SDS011;17764;47.152;9.828;2023-03-05T04:17:27;46.13;;;31.47;;
31114;SDS011;17764;47.152;9.828;2023-03-05T04:19:53;46.20;;;31.33;;
31114;SDS011;17764;47.152;9.828;2023-03-05T04:22:19;45.30;;;31.00;;
31114;SDS011;17764;47.152;9.828;2023-03-05T04:24:45;47.03;;;31.43;;
31114;SDS011;17764;47.152;9.828;2023-03-05T04:27:11;49.47;;;32.13;;
31114;SDS011;17764;47.152;9.828;2023-03-05T04:29:37;48.73;;;31.73;;
31114;SDS011;17764;47.152;9.828;2023-03-05T04:32:03;46.03;;;30.47;;
31114;SDS011;17764;47.152;9.828;2023-03-05T04:34:29;52.57;;;32.43;;
31114;SDS011;17764;47.152;9.828;2023-03-05T04:36:56;46.13;;;31.23;;
31114;SDS011;17764;47.152;9.828;2023-03-05T04:39:22;48.50;;;32.03;;
31114;SDS011;17764;47.152;9.828;2023-03-05T04:41:49;49.60;;;32.30;;
31114;SDS011;17764;47.152;9.828;2023-03-05T04:44:16;45.63;;;31.97;;
31114;SDS011;17764;47.152;9.828;2023-03-05T04:46:43;46.47;;;30.93;;
31114;SDS011;17764;47.152;9.828;2023-03-05T04:49:09;47.67;;;32.80;;
31114;SDS011;17764;47.152;9.828;2023-03-05T04:51:35;47.80;;;31.57;;
31114;SDS011;17764;47.152;9.828;2023-03-05T04:54:00;49.07;;;31.47;;
31114;SDS011;17764;47.152;9.828;2023-03-05T04:56:26;50.67;;;33.10;;
31114;SDS011;17764;47.152;9.828;2023-03-05T04:58:53;49.73;;;32.60;;
31114;SDS011;17764;47.152;9.828;2023-03-05T05:01:19;49.07;;;32.73;;
31114;SDS011;17764;47.152;9.828;2023-03-05T05:03:45;47.20;;;32.03;;
31114;SDS011;17764;47.152;9.828;2023-03-05T05:06:11;47.13;;;31.73;;
31114;SDS011;17764;47.152;9.828;2023-03-05T05:08:36;46.73;;;31.93;;
31114;SDS011;17764;47.152;9.828;2023-03-05T05:11:04;44.67;;;32.33;;
31114;SDS011;17764;47.152;9.828;2023-03-05T05:13:31;47.53;;;32.13;;
31114;SDS011;17764;47.152;9.828;2023-03-05T05:15:57;49.60;;;32.23;;
31114;SDS011;17764;47.152;9.828;2023-03-05T05:18:23;47.93;;;32.50;;
31114;SDS011;17764;47.152;9.828;2023-03-05T05:20:50;47.17;;;31.67;;
31114;SDS011;17764;47.152;9.828;2023-03-05T05:23:16;48.43;;;32.37;;
31114;SDS011;17764;47.152;9.828;2023-03-05T05:25:42;50.70;;;32.50;;
31114;SDS011;17764;47.152;9.828;2023-03-05T05:28:11;48.13;;;32.37;;
31114;SDS011;17764;47.152;9.828;2023-03-05T05:30:37;49.93;;;32.90;;
31114;SDS011;17764;47.152;9.828;2023-03-05T05:33:03;48.80;;;33.07;;
31114;SDS011;17764;47.152;9.828;2023-03-05T05:35:29;51.20;;;33.33;;
31114;SDS011;17764;47.152;9.828;2023-03-05T05:37:55;47.27;;;31.80;;
31114;SDS011;17764;47.152;9.828;2023-03-05T05:40:21;46.83;;;32.40;;
31114;SDS011;17764;47.152;9.828;2023-03-05T05:42:47;48.57;;;32.97;;
31114;SDS011;17764;47.152;9.828;2023-03-05T05:45:13;52.07;;;33.73;;
31114;SDS011;17764;47.152;9.828;2023-03-05T05:47:39;50.20;;;33.33;;
31114;SDS011;17764;47.152;9.828;2023-03-05T05:50:05;53.70;;;33.80;;
31114;SDS011;17764;47.152;9.828;2023-03-05T05:52:31;51.33;;;32.47;;
31114;SDS011;17764;47.152;9.828;2023-03-05T05:54:58;51.20;;;33.63;;
31114;SDS011;17764;47.152;9.828;2023-03-05T05:57:24;50.13;;;32.87;;
31114;SDS011;17764;47.152;9.828;2023-03-05T05:59:50;47.30;;;32.50;;
31114;SDS011;17764;47.152;9.828;2023-03-05T06:02:16;51.07;;;32.67;;
31114;SDS011;17764;47.152;9.828;2023-03-05T06:04:44;52.70;;;33.87;;
31114;SDS011;17764;47.152;9.828;2023-03-05T06:07:10;48.57;;;33.27;;
31114;SDS011;17764;47.152;9.828;2023-03-05T06:09:38;50.60;;;32.80;;
31114;SDS011;17764;47.152;9.828;2023-03-05T06:12:04;46.63;;;31.60;;
31114;SDS011;17764;47.152;9.828;2023-03-05T06:14:30;51.53;;;33.77;;
31114;SDS011;17764;47.152;9.828;2023-03-05T06:16:56;51.90;;;33.87;;
31114;SDS011;17764;47.152;9.828;2023-03-05T06:19:22;54.10;;;34.27;;
31114;SDS011;17764;47.152;9.828;2023-03-05T06:21:50;48.43;;;32.33;;
31114;SDS011;17764;47.152;9.828;2023-03-05T06:24:15;50.90;;;32.27;;
31114;SDS011;17764;47.152;9.828;2023-03-05T06:26:43;49.97;;;33.50;;
31114;SDS011;17764;47.152;9.828;2023-03-05T06:29:10;53.17;;;35.17;;
31114;SDS011;17764;47.152;9.828;2023-03-05T06:31:37;52.00;;;33.23;;
31114;SDS011;17764;47.152;9.828;2023-03-05T06:34:03;50.93;;;33.40;;
31114;SDS011;17764;47.152;9.828;2023-03-05T06:36:29;52.80;;;33.80;;
31114;SDS011;17764;47.152;9.828;2023-03-05T06:38:55;47.17;;;32.70;;
31114;SDS011;17764;47.152;9.828;2023-03-05T06:41:23;54.13;;;32.70;;
31114;SDS011;17764;47.152;9.828;2023-03-05T06:43:50;54.30;;;33.40;;
31114;SDS011;17764;47.152;9.828;2023-03-05T06:48:42;50.90;;;31.17;;
31114;SDS011;17764;47.152;9.828;2023-03-05T06:51:12;49.20;;;32.17;;
31114;SDS011;17764;47.152;9.828;2023-03-05T06:53:39;50.13;;;32.47;;
31114;SDS011;17764;47.152;9.828;2023-03-05T06:56:05;52.03;;;33.43;;
31114;SDS011;17764;47.152;9.828;2023-03-05T06:58:31;48.30;;;33.00;;
31114;SDS011;17764;47.152;9.828;2023-03-05T07:00:57;51.00;;;33.33;;
31114;SDS011;17764;47.152;9.828;2023-03-05T07:03:24;47.33;;;31.30;;
31114;SDS011;17764;47.152;9.828;2023-03-05T07:05:49;50.80;;;33.37;;
31114;SDS011;17764;47.152;9.828;2023-03-05T07:08:15;50.67;;;33.73;;
31114;SDS011;17764;47.152;9.828;2023-03-05T07:10:42;53.70;;;34.43;;
31114;SDS011;17764;47.152;9.828;2023-03-05T07:13:09;52.60;;;33.67;;
31114;SDS011;17764;47.152;9.828;2023-03-05T07:15:40;53.13;;;34.93;;
31114;SDS011;17764;47.152;9.828;2023-03-05T07:18:06;50.03;;;32.67;;
31114;SDS011;17764;47.152;9.828;2023-03-05T07:20:33;55.40;;;35.60;;
31114;SDS011;17764;47.152;9.828;2023-03-05T07:22:59;51.27;;;34.53;;
31114;SDS011;17764;47.152;9.828;2023-03-05T07:25:26;52.17;;;33.57;;
31114;SDS011;17764;47.152;9.828;2023-03-05T07:27:52;50.07;;;34.83;;
31114;SDS011;17764;47.152;9.828;2023-03-05T07:30:18;51.63;;;34.57;;
31114;SDS011;17764;47.152;9.828;2023-03-05T07:32:44;52.23;;;33.00;;
31114;SDS011;17764;47.152;9.828;2023-03-05T07:35:10;50.00;;;33.20;;
31114;SDS011;17764;47.152;9.828;2023-03-05T07:37:36;52.60;;;34.03;;
31114;SDS011;17764;47.152;9.828;2023-03-05T07:40:02;51.83;;;34.23;;
31114;SDS011;17764;47.152;9.828;2023-03-05T07:42:29;51.87;;;33.30;;
31114;SDS011;17764;47.152;9.828;2023-03-05T07:44:55;50.07;;;32.57;;
31114;SDS011;17764;47.152;9.828;2023-03-05T07:47:21;49.37;;;33.73;;
31114;SDS011;17764;47.152;9.828;2023-03-05T07:49:47;49.87;;;33.80;;
31114;SDS011;17764;47.152;9.828;2023-03-05T07:52:13;52.13;;;33.40;;
31114;SDS011;17764;47.152;9.828;2023-03-05T07:54:42;52.93;;;33.37;;
31114;SDS011;17764;47.152;9.828;2023-03-05T07:57:09;52.43;;;33.17;;
31114;SDS011;17764;47.152;9.828;2023-03-05T07:59:37;49.33;;;32.60;;
31114;SDS011;17764;47.152;9.828;2023-03-05T08:02:03;49.23;;;33.40;;
31114;SDS011;17764;47.152;9.828;2023-03-05T08:04:30;52.40;;;34.93;;
31114;SDS011;17764;47.152;9.828;2023-03-05T08:06:56;54.40;;;33.93;;
31114;SDS011;17764;47.152;9.828;2023-03-05T08:09:22;50.43;;;33.07;;
31114;SDS011;17764;47.152;9.828;2023-03-05T08:11:48;53.17;;;34.97;;
31114;SDS011;17764;47.152;9.828;2023-03-05T08:14:14;52.40;;;34.03;;
31114;SDS011;17764;47.152;9.828;2023-03-05T08:16:40;53.23;;;34.97;;
31114;SDS011;17764;47.152;9.828;2023-03-05T08:19:05;54.47;;;35.23;;
31114;SDS011;17764;47.152;9.828;2023-03-05T08:21:33;52.73;;;34.83;;
31114;SDS011;17764;47.152;9.828;2023-03-05T08:24:03;55.43;;;35.20;;
31114;SDS011;17764;47.152;9.828;2023-03-05T08:26:30;47.53;;;32.73;;
31114;SDS011;17764;47.152;9.828;2023-03-05T08:28:56;55.67;;;35.03;;
31114;SDS011;17764;47.152;9.828;2023-03-05T08:31:23;54.10;;;33.53;;
31114;SDS011;17764;47.152;9.828;2023-03-05T08:33:51;45.70;;;32.20;;
31114;SDS011;17764;47.152;9.828;2023-03-05T08:36:17;48.70;;;32.23;;
31114;SDS011;17764;47.152;9.828;2023-03-05T08:38:43;49.17;;;32.17;;
31114;SDS011;17764;47.152;9.828;2023-03-05T08:41:11;50.23;;;32.17;;
31114;SDS011;17764;47.152;9.828;2023-03-05T08:43:37;52.83;;;33.40;;
31114;SDS011;17764;47.152;9.828;2023-03-05T08:46:03;50.00;;;33.03;;
31114;SDS011;17764;47.152;9.828;2023-03-05T08:48:31;51.17;;;33.30;;
31114;SDS011;17764;47.152;9.828;2023-03-05T08:50:57;51.57;;;32.37;;
31114;SDS011;17764;47.152;9.828;2023-03-05T08:53:29;48.90;;;31.73;;
31114;SDS011;17764;47.152;9.828;2023-03-05T08:55:56;48.20;;;31.40;;
31114;SDS011;17764;47.152;9.828;2023-03-05T08:58:22;47.17;;;30.33;;
31114;SDS011;17764;47.152;9.828;2023-03-05T09:00:49;44.60;;;29.73;;
31114;SDS011;17764;47.152;9.828;2023-03-05T09:03:15;49.73;;;32.53;;
31114;SDS011;17764;47.152;9.828;2023-03-05T09:05:41;48.47;;;30.73;;
31114;SDS011;17764;47.152;9.828;2023-03-05T09:08:07;45.73;;;29.73;;
31114;SDS011;17764;47.152;9.828;2023-03-05T09:10:33;45.63;;;30.37;;
31114;SDS011;17764;47.152;9.828;2023-03-05T09:12:59;40.90;;;29.03;;
31114;SDS011;17764;47.152;9.828;2023-03-05T09:15:25;40.70;;;27.63;;
31114;SDS011;17764;47.152;9.828;2023-03-05T09:17:54;46.03;;;29.97;;
31114;SDS011;17764;47.152;9.828;2023-03-05T09:20:20;46.53;;;30.20;;
31114;SDS011;17764;47.152;9.828;2023-03-05T09:22:46;43.63;;;29.67;;
31114;SDS011;17764;47.152;9.828;2023-03-05T09:25:12;44.03;;;29.53;;
31114;SDS011;17764;47.152;9.828;2023-03-05T09:27:38;45.97;;;29.87;;
31114;SDS011;17764;47.152;9.828;2023-03-05T09:30:05;43.40;;;29.33;;
31114;SDS011;17764;47.152;9.828;2023-03-05T09:32:31;40.87;;;28.70;;
31114;SDS011;17764;47.152;9.828;2023-03-05T09:34:57;41.77;;;27.83;;
31114;SDS011;17764;47.152;9.828;2023-03-05T09:37:25;39.93;;;28.97;;
31114;SDS011;17764;47.152;9.828;2023-03-05T09:39:52;43.03;;;28.53;;
31114;SDS011;17764;47.152;9.828;2023-03-05T09:49:50;45.73;;;27.77;;
31114;SDS011;17764;47.152;9.828;2023-03-05T09:52:48;43.63;;;28.20;;
31114;SDS011;17764;47.152;9.828;2023-03-05T09:55:25;43.47;;;28.47;;
31114;SDS011;17764;47.152;9.828;2023-03-05T09:57:55;44.23;;;29.17;;
31114;SDS011;17764;47.152;9.828;2023-03-05T10:00:28;42.57;;;29.23;;
31114;SDS011;17764;47.152;9.828;2023-03-05T10:02:58;46.27;;;29.47;;
31114;SDS011;17764;47.152;9.828;2023-03-05T10:05:31;42.00;;;27.37;;
31114;SDS011;17764;47.152;9.828;2023-03-05T10:08:18;43.23;;;27.40;;
31114;SDS011;17764;47.152;9.828;2023-03-05T10:10:50;43.83;;;28.77;;
31114;SDS011;17764;47.152;9.828;2023-03-05T10:13:24;41.67;;;27.50;;
31114;SDS011;17764;47.152;9.828;2023-03-05T10:23:49;35.23;;;24.93;;
31114;SDS011;17764;47.152;9.828;2023-03-05T10:28:55;39.60;;;26.47;;
31114;SDS011;17764;47.152;9.828;2023-03-05T10:44:44;37.53;;;26.13;;
31114;SDS011;17764;47.152;9.828;2023-03-05T10:50:20;35.13;;;24.10;;
31114;SDS011;17764;47.152;9.828;2023-03-05T10:52:47;41.60;;;25.03;;
31114;SDS011;17764;47.152;9.828;2023-03-05T10:55:19;35.20;;;24.57;;
31114;SDS011;17764;47.152;9.828;2023-03-05T10:57:45;38.07;;;24.30;;
31114;SDS011;17764;47.152;9.828;2023-03-05T11:05:39;34.37;;;21.90;;
31114;SDS011;17764;47.152;9.828;2023-03-05T11:11:17;32.63;;;22.27;;
31114;SDS011;17764;47.152;9.828;2023-03-05T11:16:18;42.40;;;26.53;;
31114;SDS011;17764;47.152;9.828;2023-03-05T11:18:44;37.20;;;24.33;;
31114;SDS011;17764;47.152;9.828;2023-03-05T11:21:21;34.97;;;23.87;;
31114;SDS011;17764;47.152;9.828;2023-03-05T11:26:44;36.27;;;24.30;;
31114;SDS011;17764;47.152;9.828;2023-03-05T11:29:15;37.03;;;24.53;;
31114;SDS011;17764;47.152;9.828;2023-03-05T11:31:41;35.73;;;24.73;;
31114;SDS011;17764;47.152;9.828;2023-03-05T11:36:43;35.87;;;24.63;;
31114;SDS011;17764;47.152;9.828;2023-03-05T11:39:27;34.27;;;24.40;;
31114;SDS011;17764;47.152;9.828;2023-03-05T11:42:08;36.30;;;22.87;;
31114;SDS011;17764;47.152;9.828;2023-03-05T11:44:49;35.03;;;23.17;;
31114;SDS011;17764;47.152;9.828;2023-03-05T11:49:43;36.37;;;22.97;;
31114;SDS011;17764;47.152;9.828;2023-03-05T11:52:11;34.27;;;23.73;;
31114;SDS011;17764;47.152;9.828;2023-03-05T11:54:50;35.33;;;22.97;;
31114;SDS011;17764;47.152;9.828;2023-03-05T11:57:17;36.87;;;23.73;;
31114;SDS011;17764;47.152;9.828;2023-03-05T11:59:44;38.13;;;24.07;;
31114;SDS011;17764;47.152;9.828;2023-03-05T12:02:21;40.30;;;24.53;;
31114;SDS011;17764;47.152;9.828;2023-03-05T12:04:48;38.27;;;24.53;;
31114;SDS011;17764;47.152;9.828;2023-03-05T12:07:19;36.47;;;23.60;;
31114;SDS011;17764;47.152;9.828;2023-03-05T12:09:51;36.93;;;25.10;;
31114;SDS011;17764;47.152;9.828;2023-03-05T12:12:23;37.40;;;23.63;;
31114;SDS011;17764;47.152;9.828;2023-03-05T12:14:55;34.53;;;21.87;;
31114;SDS011;17764;47.152;9.828;2023-03-05T12:17:41;33.27;;;22.20;;
31114;SDS011;17764;47.152;9.828;2023-03-05T12:20:12;33.50;;;22.13;;
31114;SDS011;17764;47.152;9.828;2023-03-05T12:22:41;35.50;;;21.93;;
31114;SDS011;17764;47.152;9.828;2023-03-05T12:27:43;31.27;;;20.90;;
31114;SDS011;17764;47.152;9.828;2023-03-05T12:30:51;33.87;;;22.20;;
31114;SDS011;17764;47.152;9.828;2023-03-05T12:33:31;33.83;;;21.57;;
31114;SDS011;17764;47.152;9.828;2023-03-05T12:38:46;31.80;;;21.10;;
31114;SDS011;17764;47.152;9.828;2023-03-05T12:48:59;32.47;;;22.23;;
31114;SDS011;17764;47.152;9.828;2023-03-05T12:51:34;30.73;;;20.63;;
31114;SDS011;17764;47.152;9.828;2023-03-05T12:56:47;30.47;;;21.13;;
31114;SDS011;17764;47.152;9.828;2023-03-05T12:59:14;30.77;;;21.17;;
31114;SDS011;17764;47.152;9.828;2023-03-05T13:01:55;29.73;;;20.63;;
31114;SDS011;17764;47.152;9.828;2023-03-05T13:04:28;30.90;;;21.93;;
31114;SDS011;17764;47.152;9.828;2023-03-05T13:07:05;36.00;;;23.87;;
31114;SDS011;17764;47.152;9.828;2023-03-05T13:09:38;34.20;;;22.73;;
31114;SDS011;17764;47.152;9.828;2023-03-05T13:12:08;32.00;;;21.90;;
31114;SDS011;17764;47.152;9.828;2023-03-05T13:14:40;32.53;;;22.33;;
31114;SDS011;17764;47.152;9.828;2023-03-05T13:19:48;29.47;;;20.40;;
31114;SDS011;17764;47.152;9.828;2023-03-05T13:22:14;32.17;;;21.47;;
31114;SDS011;17764;47.152;9.828;2023-03-05T13:24:40;30.97;;;21.13;;
31114;SDS011;17764;47.152;9.828;2023-03-05T13:27:20;33.33;;;22.10;;
31114;SDS011;17764;47.152;9.828;2023-03-05T13:29:50;29.33;;;19.90;;
31114;SDS011;17764;47.152;9.828;2023-03-05T13:32:26;30.80;;;20.90;;
31114;SDS011;17764;47.152;9.828;2023-03-05T13:34:54;27.43;;;19.47;;
31114;SDS011;17764;47.152;9.828;2023-03-05T13:37:23;31.27;;;21.00;;
31114;SDS011;17764;47.152;9.828;2023-03-05T13:39:50;28.07;;;19.87;;
31114;SDS011;17764;47.152;9.828;2023-03-05T13:44:43;31.67;;;21.13;;
31114;SDS011;17764;47.152;9.828;2023-03-05T13:47:19;32.40;;;20.67;;
31114;SDS011;17764;47.152;9.828;2023-03-05T13:49:45;32.53;;;20.90;;
31114;SDS011;17764;47.152;9.828;2023-03-05T13:52:12;30.70;;;21.93;;
31114;SDS011;17764;47.152;9.828;2023-03-05T13:54:47;32.93;;;22.83;;
31114;SDS011;17764;47.152;9.828;2023-03-05T13:57:34;30.10;;;20.90;;
31114;SDS011;17764;47.152;9.828;2023-03-05T14:00:03;31.70;;;22.97;;
31114;SDS011;17764;47.152;9.828;2023-03-05T14:02:29;32.73;;;21.40;;
31114;SDS011;17764;47.152;9.828;2023-03-05T14:04:55;29.97;;;21.47;;
31114;SDS011;17764;47.152;9.828;2023-03-05T14:07:37;31.10;;;20.43;;
31114;SDS011;17764;47.152;9.828;2023-03-05T14:10:22;29.97;;;21.53;;
31114;SDS011;17764;47.152;9.828;2023-03-05T14:12:50;33.73;;;22.27;;
31114;SDS011;17764;47.152;9.828;2023-03-05T14:15:21;31.23;;;21.80;;
31114;SDS011;17764;47.152;9.828;2023-03-05T14:17:48;36.13;;;23.77;;
31114;SDS011;17764;47.152;9.828;2023-03-05T14:20:21;31.67;;;21.17;;
31114;SDS011;17764;47.152;9.828;2023-03-05T14:22:50;34.07;;;22.70;;
31114;SDS011;17764;47.152;9.828;2023-03-05T14:27:54;34.80;;;23.30;;
31114;SDS011;17764;47.152;9.828;2023-03-05T14:30:21;33.37;;;22.80;;
31114;SDS011;17764;47.152;9.828;2023-03-05T14:32:47;32.30;;;23.07;;
31114;SDS011;17764;47.152;9.828;2023-03-05T14:35:24;32.30;;;21.37;;
31114;SDS011;17764;47.152;9.828;2023-03-05T14:37:50;29.50;;;21.33;;
31114;SDS011;17764;47.152;9.828;2023-03-05T14:40:21;29.90;;;20.73;;
31114;SDS011;17764;47.152;9.828;2023-03-05T14:45:21;31.47;;;21.70;;
31114;SDS011;17764;47.152;9.828;2023-03-05T14:47:58;30.80;;;21.10;;
31114;SDS011;17764;47.152;9.828;2023-03-05T14:50:26;31.00;;;21.70;;
31114;SDS011;17764;47.152;9.828;2023-03-05T14:52:53;30.93;;;21.90;;
31114;SDS011;17764;47.152;9.828;2023-03-05T14:55:23;30.50;;;21.37;;
31114;SDS011;17764;47.152;9.828;2023-03-05T14:57:51;31.17;;;22.27;;
31114;SDS011;17764;47.152;9.828;2023-03-05T15:00:21;30.03;;;20.83;;
31114;SDS011;17764;47.152;9.828;2023-03-05T15:02:47;30.70;;;22.03;;
31114;SDS011;17764;47.152;9.828;2023-03-05T15:05:13;30.83;;;20.33;;
31114;SDS011;17764;47.152;9.828;2023-03-05T15:07:39;36.63;;;20.73;;
31114;SDS011;17764;47.152;9.828;2023-03-05T15:10:06;28.37;;;20.37;;
31114;SDS011;17764;47.152;9.828;2023-03-05T15:12:32;33.13;;;22.27;;
31114;SDS011;17764;47.152;9.828;2023-03-05T15:14:59;30.43;;;21.50;;
31114;SDS011;17764;47.152;9.828;2023-03-05T15:19:51;29.57;;;21.10;;
31114;SDS011;17764;47.152;9.828;2023-03-05T15:22:17;31.97;;;21.23;;
31114;SDS011;17764;47.152;9.828;2023-03-05T15:24:45;31.03;;;21.13;;
31114;SDS011;17764;47.152;9.828;2023-03-05T15:27:11;31.97;;;21.50;;
31114;SDS011;17764;47.152;9.828;2023-03-05T15:29:38;30.17;;;20.77;;
31114;SDS011;17764;47.152;9.828;2023-03-05T15:32:04;31.37;;;21.03;;
31114;SDS011;17764;47.152;9.828;2023-03-05T15:34:31;30.87;;;21.43;;
31114;SDS011;17764;47.152;9.828;2023-03-05T15:36:58;33.13;;;22.10;;
31114;SDS011;17764;47.152;9.828;2023-03-05T15:39:24;32.07;;;21.70;;
31114;SDS011;17764;47.152;9.828;2023-03-05T15:41:50;28.93;;;20.10;;
31114;SDS011;17764;47.152;9.828;2023-03-05T15:44:17;29.37;;;20.80;;
31114;SDS011;17764;47.152;9.828;2023-03-05T15:46:43;29.23;;;20.53;;
31114;SDS011;17764;47.152;9.828;2023-03-05T15:49:09;31.80;;;21.87;;
31114;SDS011;17764;47.152;9.828;2023-03-05T15:51:35;30.80;;;20.60;;